Time;durP1;ratioP1;P1;durP2;ratioP2;P2;SDS_P1;SDS_P2;PMS_P1;PMS_P2;Temp;Humidity;BMP_temperature;BMP_pressure;BME280_temperature;BME280_humidity;BME280_pressure;Samples;Min_cycle;Max_cycle;Signal;HPM_P1;HPM_P2
2023/04/20 00:00:30;;;;;;;7.65;5.15;;;;;;;;;;4980894;28;20046;-78
2023/04/20 00:02:55;;;;;;;17.98;6.60;;;;;;;;;;4980752;28;20018;-78
2023/04/20 00:05:22;;;;;;;7.53;6.07;;;;;;;;;;4981188;28;20062;-78
2023/04/20 00:07:48;;;;;;;10.50;6.38;;;;;;;;;;4978881;28;20434;-77
2023/04/20 00:10:14;;;;;;;12.45;6.38;;;;;;;;;;4981578;28;20121;-77
2023/04/20 00:12:43;;;;;;;11.05;6.03;;;;;;;;;;4982027;28;20804;-77
2023/04/20 00:15:09;;;;;;;11.00;6.28;;;;;;;;;;4981876;28;20408;-77
2023/04/20 00:17:37;;;;;;;11.38;6.25;;;;;;;;;;4976403;28;20054;-76
2023/04/20 00:20:04;;;;;;;11.85;6.95;;;;;;;;;;4980040;28;20520;-77
2023/04/20 00:22:29;;;;;;;10.18;5.78;;;;;;;;;;4981749;28;20033;-77
2023/04/20 00:24:55;;;;;;;9.35;6.47;;;;;;;;;;4982824;28;20035;-77
2023/04/20 00:27:21;;;;;;;9.10;6.60;;;;;;;;;;4983118;28;20065;-77
2023/04/20 00:29:47;;;;;;;10.88;6.97;;;;;;;;;;4998920;28;20030;-78
2023/04/20 00:32:13;;;;;;;12.48;6.93;;;;;;;;;;4984661;28;20060;-78
2023/04/20 00:34:39;;;;;;;12.15;7.03;;;;;;;;;;4988643;28;20042;-78
2023/04/20 00:37:06;;;;;;;15.18;8.10;;;;;;;;;;4987310;28;20073;-78
2023/04/20 00:39:32;;;;;;;16.75;8.07;;;;;;;;;;4980881;28;20503;-77
2023/04/20 00:42:06;;;;;;;10.20;7.32;;;;;;;;;;4981165;28;20030;-77
2023/04/20 00:44:32;;;;;;;14.27;8.32;;;;;;;;;;4992047;28;20047;-77
2023/04/20 00:47:00;;;;;;;12.98;8.10;;;;;;;;;;4979709;28;20037;-77
2023/04/20 00:49:30;;;;;;;10.10;7.10;;;;;;;;;;4978797;28;20049;-76
2023/04/20 00:52:00;;;;;;;17.85;7.30;;;;;;;;;;4979984;28;20046;-78
2023/04/20 00:54:27;;;;;;;10.52;7.05;;;;;;;;;;4979513;28;20054;-75
2023/04/20 00:56:55;;;;;;;12.32;7.03;;;;;;;;;;4982640;28;20034;-76
2023/04/20 00:59:22;;;;;;;10.20;6.53;;;;;;;;;;4987655;28;20022;-76
2023/04/20 01:01:48;;;;;;;9.00;6.28;;;;;;;;;;4987643;28;20045;-76
2023/04/20 01:04:15;;;;;;;12.80;6.75;;;;;;;;;;5006500;28;20022;-76
2023/04/20 01:06:41;;;;;;;14.20;6.30;;;;;;;;;;4990505;28;20042;-77
2023/04/20 01:09:06;;;;;;;13.43;7.15;;;;;;;;;;4989765;28;20026;-77
2023/04/20 01:11:35;;;;;;;12.57;6.50;;;;;;;;;;4990656;28;20030;-77
2023/04/20 01:14:01;;;;;;;12.52;6.93;;;;;;;;;;5007085;28;20369;-77
2023/04/20 01:16:27;;;;;;;11.48;7.15;;;;;;;;;;4974911;28;20038;-76
2023/04/20 01:18:52;;;;;;;13.10;7.03;;;;;;;;;;5007346;28;20447;-76
2023/04/20 01:21:22;;;;;;;10.68;7.07;;;;;;;;;;4975019;28;20038;-77
2023/04/20 01:23:50;;;;;;;12.40;7.25;;;;;;;;;;4990976;28;20408;-77
2023/04/20 01:26:17;;;;;;;9.60;7.03;;;;;;;;;;4991119;28;20034;-77
2023/04/20 01:28:44;;;;;;;9.93;7.15;;;;;;;;;;4990838;28;20034;-75
2023/04/20 01:31:11;;;;;;;13.52;6.97;;;;;;;;;;4990993;28;20030;-76
2023/04/20 01:33:37;;;;;;;7.65;5.57;;;;;;;;;;4992172;28;20045;-76
2023/04/20 01:36:05;;;;;;;7.32;5.00;;;;;;;;;;4992483;28;20097;-77
2023/04/20 01:38:33;;;;;;;6.93;4.60;;;;;;;;;;4990789;28;20400;-77
2023/04/20 01:41:05;;;;;;;7.45;5.20;;;;;;;;;;4992408;28;20034;-76
2023/04/20 01:43:33;;;;;;;7.35;5.20;;;;;;;;;;4992219;28;20037;-76
2023/04/20 01:45:59;;;;;;;10.30;5.32;;;;;;;;;;4990959;28;20018;-77
2023/04/20 01:48:25;;;;;;;7.63;5.35;;;;;;;;;;4989185;28;20132;-77
2023/04/20 01:50:52;;;;;;;7.82;5.68;;;;;;;;;;4990634;28;20022;-76
2023/04/20 01:53:18;;;;;;;8.45;5.40;;;;;;;;;;4990955;28;20039;-77
2023/04/20 01:55:46;;;;;;;7.75;5.50;;;;;;;;;;5007185;28;20065;-77
2023/04/20 01:58:12;;;;;;;8.15;5.38;;;;;;;;;;4990425;28;20034;-77
2023/04/20 02:00:38;;;;;;;8.18;5.75;;;;;;;;;;4990424;28;20045;-77
2023/04/20 02:03:05;;;;;;;8.15;5.53;;;;;;;;;;4979331;28;20163;-77
2023/04/20 02:05:31;;;;;;;8.40;5.10;;;;;;;;;;4990472;28;20022;-77
2023/04/20 02:07:57;;;;;;;9.60;4.72;;;;;;;;;;4989962;28;20026;-77
2023/04/20 02:10:23;;;;;;;6.75;4.25;;;;;;;;;;4992452;28;20388;-76
2023/04/20 02:12:49;;;;;;;6.82;4.75;;;;;;;;;;4995621;28;20034;-77
2023/04/20 02:15:16;;;;;;;8.23;4.88;;;;;;;;;;4990397;28;20035;-77
2023/04/20 02:17:42;;;;;;;9.23;5.15;;;;;;;;;;4991577;28;20220;-77
2023/04/20 02:20:09;;;;;;;7.97;4.88;;;;;;;;;;4992152;28;20019;-76
2023/04/20 02:22:36;;;;;;;8.38;5.00;;;;;;;;;;4991261;28;20057;-76
2023/04/20 02:25:05;;;;;;;8.13;5.63;;;;;;;;;;4991186;28;20066;-76
2023/04/20 02:27:32;;;;;;;7.30;5.60;;;;;;;;;;4996450;28;20088;-76
2023/04/20 02:29:58;;;;;;;9.30;5.70;;;;;;;;;;4996077;28;20436;-77
2023/04/20 02:32:24;;;;;;;13.75;5.95;;;;;;;;;;4994865;28;20093;-77
2023/04/20 02:34:50;;;;;;;8.38;5.93;;;;;;;;;;4994989;28;20038;-76
2023/04/20 02:37:16;;;;;;;8.77;5.72;;;;;;;;;;4994857;28;20267;-76
2023/04/20 02:39:42;;;;;;;7.57;4.80;;;;;;;;;;4994834;28;20535;-77
2023/04/20 02:42:08;;;;;;;9.40;5.32;;;;;;;;;;4996040;28;20392;-77
2023/04/20 02:44:34;;;;;;;10.43;6.32;;;;;;;;;;4994793;28;20026;-77
2023/04/20 02:47:01;;;;;;;19.42;6.68;;;;;;;;;;4994801;28;20038;-77
2023/04/20 02:49:27;;;;;;;8.90;5.93;;;;;;;;;;4995870;28;20540;-76
2023/04/20 02:51:53;;;;;;;11.80;6.35;;;;;;;;;;4994866;28;20061;-77
2023/04/20 02:54:19;;;;;;;10.73;6.20;;;;;;;;;;4994593;28;20023;-77
2023/04/20 02:56:45;;;;;;;8.95;5.55;;;;;;;;;;4978233;28;20026;-77
2023/04/20 02:59:11;;;;;;;8.35;5.50;;;;;;;;;;4994268;28;20029;-76
2023/04/20 03:01:42;;;;;;;7.75;5.60;;;;;;;;;;4995725;28;20054;-75
2023/04/20 03:04:14;;;;;;;8.57;5.38;;;;;;;;;;4995660;28;20026;-77
2023/04/20 03:06:52;;;;;;;12.30;5.47;;;;;;;;;;4994400;28;20069;-76
2023/04/20 03:09:24;;;;;;;8.15;5.43;;;;;;;;;;4993987;28;20411;-77
2023/04/20 03:12:05;;;;;;;8.85;5.88;;;;;;;;;;5010400;28;20488;-77
2023/04/20 03:14:50;;;;;;;7.90;5.13;;;;;;;;;;4995603;28;20104;-77
2023/04/20 03:17:20;;;;;;;11.02;5.22;;;;;;;;;;4994003;28;20046;-77
2023/04/20 03:19:46;;;;;;;18.52;4.55;;;;;;;;;;4978100;28;20072;-76
2023/04/20 03:22:12;;;;;;;8.60;4.15;;;;;;;;;;4995002;28;20038;-77
2023/04/20 03:24:37;;;;;;;6.35;3.70;;;;;;;;;;4978001;28;20022;-77
2023/04/20 03:27:13;;;;;;;9.15;3.45;;;;;;;;;;5010402;28;20045;-76
2023/04/20 03:29:51;;;;;;;8.15;4.30;;;;;;;;;;5009965;28;20034;-76
2023/04/20 03:32:17;;;;;;;8.95;4.05;;;;;;;;;;4995067;28;20033;-77
2023/04/20 03:34:43;;;;;;;8.35;3.88;;;;;;;;;;5009893;28;20018;-77
2023/04/20 03:37:08;;;;;;;8.55;3.45;;;;;;;;;;4993106;28;20038;-76
2023/04/20 03:39:34;;;;;;;9.73;3.90;;;;;;;;;;5010461;28;20385;-76
2023/04/20 03:42:00;;;;;;;11.95;4.88;;;;;;;;;;4994236;28;20042;-76
2023/04/20 03:44:26;;;;;;;20.35;5.97;;;;;;;;;;4995884;28;20033;-78
2023/04/20 03:46:52;;;;;;;15.30;6.57;;;;;;;;;;4994296;28;20554;-77
2023/04/20 03:49:23;;;;;;;12.55;6.50;;;;;;;;;;4996965;28;20034;-77
2023/04/20 03:51:50;;;;;;;17.27;8.13;;;;;;;;;;4994032;28;20373;-78
2023/04/20 03:54:16;;;;;;;13.77;7.80;;;;;;;;;;4994711;28;20389;-77
2023/04/20 03:56:44;;;;;;;11.90;7.20;;;;;;;;;;4993322;28;20439;-77
2023/04/20 03:59:11;;;;;;;15.05;7.95;;;;;;;;;;4993027;28;20077;-76
2023/04/20 04:01:38;;;;;;;25.17;8.07;;;;;;;;;;4993096;28;20143;-76
2023/04/20 04:04:04;;;;;;;12.10;7.15;;;;;;;;;;4994561;28;20018;-77
2023/04/20 04:06:31;;;;;;;18.17;7.32;;;;;;;;;;4992989;28;20038;-77
2023/04/20 04:08:57;;;;;;;11.63;6.78;;;;;;;;;;4992978;28;20030;-79
2023/04/20 04:11:24;;;;;;;9.73;6.35;;;;;;;;;;4992688;28;20108;-77
2023/04/20 04:13:52;;;;;;;8.75;6.07;;;;;;;;;;4992827;28;20030;-78
2023/04/20 04:16:17;;;;;;;12.65;5.68;;;;;;;;;;4989746;28;20034;-77
2023/04/20 04:18:43;;;;;;;13.45;6.97;;;;;;;;;;4990367;28;20034;-77
2023/04/20 04:21:09;;;;;;;9.40;5.65;;;;;;;;;;4992150;28;20034;-76
2023/04/20 04:23:37;;;;;;;10.90;5.55;;;;;;;;;;4992719;28;20033;-76
2023/04/20 04:26:12;;;;;;;11.65;5.72;;;;;;;;;;4992367;28;20030;-76
2023/04/20 04:28:44;;;;;;;9.73;6.03;;;;;;;;;;4992225;28;20042;-77
2023/04/20 04:31:18;;;;;;;8.73;5.30;;;;;;;;;;4992340;28;20034;-76
2023/04/20 04:33:45;;;;;;;9.13;5.18;;;;;;;;;;4992469;28;20042;-78
2023/04/20 04:36:15;;;;;;;11.82;5.18;;;;;;;;;;4991838;28;20033;-77
2023/04/20 04:38:44;;;;;;;7.35;4.72;;;;;;;;;;4991895;28;20036;-77
2023/04/20 04:41:13;;;;;;;9.93;5.00;;;;;;;;;;4991487;28;20022;-76
2023/04/20 04:43:40;;;;;;;11.00;4.75;;;;;;;;;;4993303;28;20030;-77
2023/04/20 04:46:19;;;;;;;6.03;4.10;;;;;;;;;;4992186;28;20050;-76
2023/04/20 04:48:45;;;;;;;24.17;5.97;;;;;;;;;;4991733;28;20042;-77
2023/04/20 04:51:12;;;;;;;11.80;5.95;;;;;;;;;;4993415;28;20023;-77
2023/04/20 04:53:38;;;;;;;10.48;6.25;;;;;;;;;;4991503;28;20499;-76
2023/04/20 04:56:05;;;;;;;16.17;6.03;;;;;;;;;;4993254;28;20023;-78
2023/04/20 04:58:36;;;;;;;20.95;7.93;;;;;;;;;;4991682;28;20034;-79
2023/04/20 05:01:01;;;;;;;18.63;6.97;;;;;;;;;;4991767;28;20080;-78
2023/04/20 05:03:27;;;;;;;12.88;7.30;;;;;;;;;;4991560;28;20018;-79
2023/04/20 05:05:53;;;;;;;13.63;6.53;;;;;;;;;;4991883;28;20026;-78
2023/04/20 05:08:20;;;;;;;17.52;7.35;;;;;;;;;;4991049;28;20049;-78
2023/04/20 05:10:46;;;;;;;23.05;7.07;;;;;;;;;;4992691;28;20034;-78
2023/04/20 05:13:12;;;;;;;11.65;5.47;;;;;;;;;;4993021;28;20026;-77
2023/04/20 05:15:38;;;;;;;20.38;5.72;;;;;;;;;;4991764;28;20038;-77
2023/04/20 05:18:04;;;;;;;12.93;5.60;;;;;;;;;;4987959;28;20029;-77
2023/04/20 05:20:30;;;;;;;18.25;7.00;;;;;;;;;;4991011;28;20073;-78
2023/04/20 05:22:55;;;;;;;18.85;6.00;;;;;;;;;;4992279;28;20046;-78
2023/04/20 05:25:24;;;;;;;9.02;5.53;;;;;;;;;;4991521;28;20026;-76
2023/04/20 05:27:50;;;;;;;7.78;5.25;;;;;;;;;;4992399;28;20046;-78
2023/04/20 05:30:16;;;;;;;6.60;4.80;;;;;;;;;;4993709;28;20026;-77
2023/04/20 05:32:43;;;;;;;8.02;5.05;;;;;;;;;;4992353;28;20022;-77
2023/04/20 05:35:09;;;;;;;6.05;4.05;;;;;;;;;;4992174;28;20034;-77
2023/04/20 05:37:35;;;;;;;7.40;4.35;;;;;;;;;;4992482;28;20027;-79
2023/04/20 05:40:01;;;;;;;8.10;4.90;;;;;;;;;;4992362;28;20503;-79
2023/04/20 05:42:26;;;;;;;12.38;5.20;;;;;;;;;;4975332;28;20050;-79
2023/04/20 05:44:52;;;;;;;8.55;5.15;;;;;;;;;;4992100;28;20034;-79
2023/04/20 05:47:19;;;;;;;10.82;5.90;;;;;;;;;;4974768;28;20022;-78
2023/04/20 05:49:46;;;;;;;8.25;5.97;;;;;;;;;;4992035;28;20088;-78
2023/04/20 05:52:14;;;;;;;19.27;13.25;;;;;;;;;;4992328;28;20018;-78
2023/04/20 05:54:40;;;;;;;29.45;19.75;;;;;;;;;;4991413;28;20038;-77
2023/04/20 05:57:05;;;;;;;15.93;10.30;;;;;;;;;;4991650;28;20400;-77
2023/04/20 05:59:31;;;;;;;16.35;9.70;;;;;;;;;;4990719;28;20532;-78
2023/04/20 06:01:57;;;;;;;12.23;9.30;;;;;;;;;;4997571;28;20476;-78
2023/04/20 06:04:24;;;;;;;18.35;8.80;;;;;;;;;;4997544;28;20058;-77
2023/04/20 06:06:50;;;;;;;13.35;8.18;;;;;;;;;;4995998;28;20050;-77
2023/04/20 06:09:16;;;;;;;19.23;7.85;;;;;;;;;;5008263;28;20034;-78
2023/04/20 06:11:41;;;;;;;10.80;6.80;;;;;;;;;;4993379;28;20030;-77
2023/04/20 06:14:11;;;;;;;10.93;7.60;;;;;;;;;;4993073;28;20033;-78
2023/04/20 06:16:37;;;;;;;10.18;7.22;;;;;;;;;;4996017;28;20049;-78
2023/04/20 06:19:08;;;;;;;9.75;6.97;;;;;;;;;;4980118;28;20137;-79
2023/04/20 06:21:35;;;;;;;17.85;7.30;;;;;;;;;;4990530;28;20122;-80
2023/04/20 06:24:01;;;;;;;11.15;6.95;;;;;;;;;;5006939;28;20037;-78
2023/04/20 06:26:30;;;;;;;10.30;7.10;;;;;;;;;;4997451;28;20034;-78
2023/04/20 06:28:57;;;;;;;11.35;7.05;;;;;;;;;;4993204;28;20033;-77
2023/04/20 06:31:22;;;;;;;7.72;4.65;;;;;;;;;;4994483;28;20038;-79
2023/04/20 06:33:49;;;;;;;11.82;5.47;;;;;;;;;;4990687;28;20048;-78
2023/04/20 06:36:16;;;;;;;8.52;6.68;;;;;;;;;;4990463;28;20546;-78
2023/04/20 06:38:41;;;;;;;9.82;6.88;;;;;;;;;;4990740;28;20030;-77
2023/04/20 06:41:07;;;;;;;9.82;6.72;;;;;;;;;;4989417;28;20090;-79
2023/04/20 06:43:33;;;;;;;14.77;7.30;;;;;;;;;;4991081;28;20047;-79
2023/04/20 06:46:01;;;;;;;9.88;7.57;;;;;;;;;;4990749;28;20038;-79
2023/04/20 06:48:28;;;;;;;17.85;7.68;;;;;;;;;;4993690;28;20042;-79
2023/04/20 06:50:54;;;;;;;15.55;7.57;;;;;;;;;;4998211;28;20036;-77
2023/04/20 06:53:20;;;;;;;12.40;8.45;;;;;;;;;;4993266;28;20030;-78
2023/04/20 06:55:46;;;;;;;11.90;8.50;;;;;;;;;;4991706;28;20031;-77
2023/04/20 06:58:11;;;;;;;10.75;7.10;;;;;;;;;;4989558;28;20444;-79
2023/04/20 07:00:37;;;;;;;11.68;7.82;;;;;;;;;;4991586;28;20499;-78
2023/04/20 07:03:03;;;;;;;12.90;8.02;;;;;;;;;;4990408;28;20105;-77
2023/04/20 07:05:29;;;;;;;12.70;8.02;;;;;;;;;;4991186;28;20038;-77
2023/04/20 07:07:55;;;;;;;15.55;8.70;;;;;;;;;;4994995;28;20095;-76
2023/04/20 07:10:21;;;;;;;17.65;9.27;;;;;;;;;;4990973;28;20035;-77
2023/04/20 07:12:49;;;;;;;13.18;8.38;;;;;;;;;;4987966;28;20408;-78
2023/04/20 07:15:17;;;;;;;13.25;8.80;;;;;;;;;;4987310;28;20031;-79
2023/04/20 07:17:42;;;;;;;13.98;8.35;;;;;;;;;;4990542;28;20574;-78
2023/04/20 07:20:09;;;;;;;12.07;7.95;;;;;;;;;;4988409;28;20030;-78
2023/04/20 07:22:35;;;;;;;11.88;7.28;;;;;;;;;;4987994;28;20050;-78
2023/04/20 07:25:03;;;;;;;11.85;8.00;;;;;;;;;;5003041;28;20030;-77
2023/04/20 07:27:29;;;;;;;16.98;8.73;;;;;;;;;;4985909;28;20031;-76
2023/04/20 07:29:57;;;;;;;12.63;7.55;;;;;;;;;;5005675;28;20026;-78
2023/04/20 07:32:23;;;;;;;11.90;7.18;;;;;;;;;;4990787;28;20033;-78
2023/04/20 07:34:49;;;;;;;9.45;6.82;;;;;;;;;;4995278;28;20042;-76
2023/04/20 07:37:17;;;;;;;6.80;6.03;;;;;;;;;;5000652;28;20048;-78
2023/04/20 07:39:43;;;;;;;9.45;6.55;;;;;;;;;;5004626;28;20065;-79
2023/04/20 07:42:08;;;;;;;10.85;5.97;;;;;;;;;;5006033;28;20035;-78
2023/04/20 07:44:36;;;;;;;8.75;5.32;;;;;;;;;;4992610;28;20403;-80
2023/04/20 07:47:03;;;;;;;9.98;6.43;;;;;;;;;;4998409;28;20030;-78
2023/04/20 07:49:29;;;;;;;8.27;5.88;;;;;;;;;;4990569;28;20123;-78
2023/04/20 07:51:54;;;;;;;10.93;6.35;;;;;;;;;;4991092;28;20026;-78
2023/04/20 07:54:21;;;;;;;9.38;6.35;;;;;;;;;;4989856;28;20034;-78
2023/04/20 07:56:48;;;;;;;9.25;6.40;;;;;;;;;;4993168;28;20318;-78
2023/04/20 07:59:14;;;;;;;8.63;5.65;;;;;;;;;;4975227;28;20378;-79
2023/04/20 08:01:41;;;;;;;7.70;5.93;;;;;;;;;;4996301;28;20125;-80
2023/04/20 08:04:09;;;;;;;7.95;5.20;;;;;;;;;;4985757;28;20128;-79
2023/04/20 08:06:35;;;;;;;11.60;6.97;;;;;;;;;;4993751;28;20062;-79
2023/04/20 08:09:02;;;;;;;8.52;5.43;;;;;;;;;;5017249;28;20037;-78
2023/04/20 08:11:28;;;;;;;7.43;5.72;;;;;;;;;;4997295;28;20042;-78
2023/04/20 08:13:54;;;;;;;8.60;5.90;;;;;;;;;;4988410;28;20389;-76
2023/04/20 08:16:20;;;;;;;9.70;6.57;;;;;;;;;;4989743;28;20050;-76
2023/04/20 08:18:46;;;;;;;8.30;5.70;;;;;;;;;;4992154;28;20112;-77
2023/04/20 08:21:16;;;;;;;7.57;5.90;;;;;;;;;;4996228;28;20153;-77
2023/04/20 08:23:42;;;;;;;10.15;5.30;;;;;;;;;;5000389;28;20034;-77
2023/04/20 08:26:09;;;;;;;7.07;4.85;;;;;;;;;;4995916;28;20060;-78
2023/04/20 08:28:35;;;;;;;5.95;3.90;;;;;;;;;;4997266;28;20096;-78
2023/04/20 08:31:02;;;;;;;6.68;4.60;;;;;;;;;;4993601;28;20476;-78
2023/04/20 08:33:27;;;;;;;6.82;4.40;;;;;;;;;;4988990;28;20034;-78
2023/04/20 08:35:54;;;;;;;5.13;4.57;;;;;;;;;;4988603;28;20038;-80
2023/04/20 08:38:20;;;;;;;8.82;4.30;;;;;;;;;;4991002;28;20068;-79
2023/04/20 08:40:46;;;;;;;9.75;7.53;;;;;;;;;;4988570;28;20399;-79
2023/04/20 08:43:12;;;;;;;4.55;3.58;;;;;;;;;;4984794;28;20084;-78
2023/04/20 08:45:40;;;;;;;6.57;3.40;;;;;;;;;;4991455;28;20034;-80
2023/04/20 08:48:09;;;;;;;4.65;3.22;;;;;;;;;;4985694;28;20516;-78
2023/04/20 08:50:36;;;;;;;3.58;2.67;;;;;;;;;;4988807;28;20056;-78
2023/04/20 08:53:03;;;;;;;3.67;2.80;;;;;;;;;;4996792;28;20034;-78
2023/04/20 08:55:30;;;;;;;4.63;2.75;;;;;;;;;;4990278;28;20093;-77
2023/04/20 08:57:57;;;;;;;2.90;2.20;;;;;;;;;;4986108;28;20032;-78
2023/04/20 09:00:23;;;;;;;2.92;2.00;;;;;;;;;;4990774;28;20030;-78
2023/04/20 09:02:51;;;;;;;5.15;2.15;;;;;;;;;;4991537;28;20045;-79
2023/04/20 09:05:27;;;;;;;2.92;2.22;;;;;;;;;;4994388;28;20059;-78
2023/04/20 09:07:56;;;;;;;2.88;2.13;;;;;;;;;;4992244;28;20423;-78
2023/04/20 09:10:25;;;;;;;4.88;2.50;;;;;;;;;;4969378;28;20157;-79
2023/04/20 09:12:52;;;;;;;3.67;2.30;;;;;;;;;;5009705;28;20040;-79
2023/04/20 09:15:28;;;;;;;3.13;1.95;;;;;;;;;;4999063;28;20416;-79
2023/04/20 09:17:54;;;;;;;4.05;2.15;;;;;;;;;;4983301;28;20038;-79
2023/04/20 09:20:32;;;;;;;3.22;2.58;;;;;;;;;;4988400;28;20030;-79
2023/04/20 09:23:15;;;;;;;6.65;2.05;;;;;;;;;;4987665;28;20214;-78
2023/04/20 09:25:45;;;;;;;4.35;2.50;;;;;;;;;;4989474;28;20117;-79
2023/04/20 09:28:12;;;;;;;4.88;2.38;;;;;;;;;;4990077;28;20022;-79
2023/04/20 09:30:41;;;;;;;2.97;1.92;;;;;;;;;;4996685;28;20077;-78
2023/04/20 09:33:07;;;;;;;3.95;2.38;;;;;;;;;;5001947;28;20174;-78
2023/04/20 09:35:35;;;;;;;4.20;2.10;;;;;;;;;;4996494;28;20038;-78
2023/04/20 09:38:00;;;;;;;4.65;2.30;;;;;;;;;;4992523;28;20113;-79
2023/04/20 09:40:27;;;;;;;8.75;2.72;;;;;;;;;;4992588;28;20031;-77
2023/04/20 09:42:55;;;;;;;9.68;2.70;;;;;;;;;;4997597;28;20048;-79
2023/04/20 09:45:23;;;;;;;3.75;2.60;;;;;;;;;;4990229;28;20038;-78
2023/04/20 09:47:50;;;;;;;3.10;2.35;;;;;;;;;;4991293;28;20526;-78
2023/04/20 09:50:17;;;;;;;3.28;2.10;;;;;;;;;;4985531;28;20113;-79
2023/04/20 09:52:47;;;;;;;3.20;2.40;;;;;;;;;;5003072;28;20053;-77
2023/04/20 09:55:14;;;;;;;3.20;2.50;;;;;;;;;;4987034;28;20126;-76
2023/04/20 09:57:40;;;;;;;4.82;2.88;;;;;;;;;;4986593;28;20031;-77
2023/04/20 10:00:11;;;;;;;2.53;2.15;;;;;;;;;;4988618;28;20036;-77
2023/04/20 10:02:38;;;;;;;4.50;2.30;;;;;;;;;;4993381;28;20504;-77
2023/04/20 10:05:06;;;;;;;3.25;2.03;;;;;;;;;;5003187;28;20081;-79
2023/04/20 10:07:33;;;;;;;5.57;3.20;;;;;;;;;;4991209;28;20041;-77
2023/04/20 10:10:08;;;;;;;3.40;2.65;;;;;;;;;;4998986;28;20030;-77
2023/04/20 10:13:02;;;;;;;4.20;2.33;;;;;;;;;;4991044;28;20048;-77
2023/04/20 10:15:38;;;;;;;3.33;2.33;;;;;;;;;;4995327;28;20033;-77
2023/04/20 10:18:17;;;;;;;3.75;2.40;;;;;;;;;;4995968;28;20034;-78
2023/04/20 10:20:42;;;;;;;3.67;2.53;;;;;;;;;;4991524;28;20045;-78
2023/04/20 10:23:10;;;;;;;3.45;2.28;;;;;;;;;;4996379;28;20026;-78
2023/04/20 10:25:37;;;;;;;2.97;2.33;;;;;;;;;;4988689;28;20042;-78
2023/04/20 10:28:08;;;;;;;3.10;2.22;;;;;;;;;;4991481;28;20034;-78
2023/04/20 10:30:35;;;;;;;4.25;2.47;;;;;;;;;;4990031;28;20046;-78
2023/04/20 10:33:10;;;;;;;4.20;2.40;;;;;;;;;;4985812;28;20110;-78
2023/04/20 10:35:57;;;;;;;4.05;2.45;;;;;;;;;;4980209;28;20042;-77
2023/04/20 10:38:36;;;;;;;4.47;2.10;;;;;;;;;;4994226;28;20088;-79
2023/04/20 10:41:16;;;;;;;5.00;2.55;;;;;;;;;;4993794;28;20057;-80
2023/04/20 10:43:43;;;;;;;3.35;2.20;;;;;;;;;;4989282;28;20050;-78
2023/04/20 10:46:20;;;;;;;5.28;2.90;;;;;;;;;;4994581;28;20018;-79
2023/04/20 10:48:50;;;;;;;4.88;2.80;;;;;;;;;;4991926;28;20149;-79
2023/04/20 10:51:17;;;;;;;3.38;2.38;;;;;;;;;;4996294;28;20103;-77
2023/04/20 10:53:43;;;;;;;5.80;3.03;;;;;;;;;;4995297;28;20053;-80
2023/04/20 10:56:09;;;;;;;3.28;2.38;;;;;;;;;;5009413;28;20476;-79
2023/04/20 10:58:39;;;;;;;3.35;2.58;;;;;;;;;;4992678;28;20026;-78
2023/04/20 11:01:05;;;;;;;3.45;2.42;;;;;;;;;;4996779;28;20034;-78
2023/04/20 11:03:33;;;;;;;3.42;2.25;;;;;;;;;;4996270;28;20460;-78
2023/04/20 11:06:00;;;;;;;5.80;3.38;;;;;;;;;;4995491;28;20041;-78
2023/04/20 11:08:40;;;;;;;4.43;2.72;;;;;;;;;;4994324;28;20022;-80
2023/04/20 11:11:27;;;;;;;2.55;1.95;;;;;;;;;;4995522;28;20125;-79
2023/04/20 11:14:05;;;;;;;3.85;2.40;;;;;;;;;;4995789;28;20073;-79
2023/04/20 11:16:32;;;;;;;4.05;2.60;;;;;;;;;;4994012;28;20034;-76
2023/04/20 11:18:58;;;;;;;4.10;2.28;;;;;;;;;;4994351;28;20468;-78
2023/04/20 11:21:39;;;;;;;3.13;2.22;;;;;;;;;;4998426;28;20081;-79
2023/04/20 11:24:20;;;;;;;3.70;1.88;;;;;;;;;;4999228;28;20451;-77
2023/04/20 11:26:53;;;;;;;4.18;2.83;;;;;;;;;;4999973;28;20133;-78
2023/04/20 11:29:32;;;;;;;9.17;3.50;;;;;;;;;;4974811;28;20045;-78
2023/04/20 11:32:05;;;;;;;4.68;2.78;;;;;;;;;;4997369;28;20052;-78
2023/04/20 11:34:36;;;;;;;5.35;2.83;;;;;;;;;;4994257;28;20408;-78
2023/04/20 11:37:08;;;;;;;4.32;2.42;;;;;;;;;;4997955;28;20042;-79
2023/04/20 11:39:35;;;;;;;3.08;2.20;;;;;;;;;;4988396;28;20079;-78
2023/04/20 11:42:02;;;;;;;4.30;2.65;;;;;;;;;;5008900;28;20038;-78
2023/04/20 11:44:29;;;;;;;4.35;2.90;;;;;;;;;;4994813;28;20038;-78
2023/04/20 11:46:56;;;;;;;3.70;2.90;;;;;;;;;;4998410;28;20444;-78
2023/04/20 11:49:24;;;;;;;4.70;2.58;;;;;;;;;;4994267;28;20026;-78
2023/04/20 11:51:50;;;;;;;6.18;2.58;;;;;;;;;;4993001;28;20392;-78
2023/04/20 11:54:18;;;;;;;3.03;2.03;;;;;;;;;;4997617;28;20097;-79
2023/04/20 11:56:44;;;;;;;6.40;2.67;;;;;;;;;;4997342;28;20030;-79
2023/04/20 11:59:13;;;;;;;4.07;3.10;;;;;;;;;;4996442;28;20026;-78
2023/04/20 12:01:39;;;;;;;5.22;3.22;;;;;;;;;;4994375;28;20038;-78
2023/04/20 12:04:08;;;;;;;4.40;2.22;;;;;;;;;;5009983;28;20041;-78
2023/04/20 12:06:33;;;;;;;5.25;2.33;;;;;;;;;;4995407;28;20033;-78
2023/04/20 12:09:00;;;;;;;3.45;2.38;;;;;;;;;;4991614;28;20042;-80
2023/04/20 12:11:26;;;;;;;3.28;2.50;;;;;;;;;;4994194;28;20084;-78
2023/04/20 12:13:53;;;;;;;4.30;2.42;;;;;;;;;;4999774;28;20463;-78
2023/04/20 12:16:20;;;;;;;3.40;2.30;;;;;;;;;;4991119;28;20023;-78
2023/04/20 12:18:47;;;;;;;2.60;2.20;;;;;;;;;;4994321;28;20034;-79
2023/04/20 12:21:13;;;;;;;4.57;2.60;;;;;;;;;;4992428;28;20365;-78
2023/04/20 12:23:39;;;;;;;2.90;2.35;;;;;;;;;;4994733;28;20042;-79
2023/04/20 12:26:05;;;;;;;3.63;2.60;;;;;;;;;;4995186;28;20066;-79
2023/04/20 12:28:32;;;;;;;4.53;2.65;;;;;;;;;;4999054;28;20033;-79
2023/04/20 12:30:58;;;;;;;5.53;2.63;;;;;;;;;;4991962;28;20042;-78
2023/04/20 12:33:25;;;;;;;3.83;2.60;;;;;;;;;;4996839;28;20037;-77
2023/04/20 12:35:52;;;;;;;2.80;2.25;;;;;;;;;;4997291;28;20500;-78
2023/04/20 12:38:18;;;;;;;4.00;2.55;;;;;;;;;;4995901;28;20089;-78
2023/04/20 12:40:45;;;;;;;3.17;2.40;;;;;;;;;;4994061;28;20038;-79
2023/04/20 12:43:13;;;;;;;7.90;3.10;;;;;;;;;;4976575;28;20042;-79
2023/04/20 12:45:39;;;;;;;5.05;2.30;;;;;;;;;;4996671;28;20535;-78
2023/04/20 12:48:05;;;;;;;5.38;2.90;;;;;;;;;;4990468;28;20377;-78
2023/04/20 12:50:33;;;;;;;3.00;2.28;;;;;;;;;;4993936;28;20026;-77
2023/04/20 12:52:59;;;;;;;5.20;2.60;;;;;;;;;;4988825;28;20133;-78
2023/04/20 12:55:25;;;;;;;3.50;2.50;;;;;;;;;;4989209;28;20457;-78
2023/04/20 12:57:51;;;;;;;5.57;2.75;;;;;;;;;;4995713;28;20385;-76
2023/04/20 13:00:18;;;;;;;5.18;2.25;;;;;;;;;;4990216;28;20053;-78
2023/04/20 13:02:44;;;;;;;4.32;2.50;;;;;;;;;;4993457;28;20068;-78
2023/04/20 13:05:10;;;;;;;4.80;2.50;;;;;;;;;;4992607;28;20027;-77
2023/04/20 13:07:36;;;;;;;3.60;2.22;;;;;;;;;;4991589;28;20041;-77
2023/04/20 13:10:02;;;;;;;2.80;2.30;;;;;;;;;;5007595;28;20090;-78
2023/04/20 13:12:28;;;;;;;3.72;2.20;;;;;;;;;;4988566;28;20035;-79
2023/04/20 13:14:54;;;;;;;2.63;2.05;;;;;;;;;;4990221;28;20034;-78
2023/04/20 13:17:20;;;;;;;4.28;2.30;;;;;;;;;;4987915;28;20038;-78
2023/04/20 13:19:48;;;;;;;4.45;2.13;;;;;;;;;;4991305;28;20038;-79
2023/04/20 13:22:18;;;;;;;4.55;2.60;;;;;;;;;;4992774;28;20046;-79
2023/04/20 13:24:48;;;;;;;4.82;2.80;;;;;;;;;;4992269;28;20465;-85
2023/04/20 13:27:13;;;;;;;6.10;2.58;;;;;;;;;;4977632;28;20105;-81
2023/04/20 13:29:40;;;;;;;3.35;2.40;;;;;;;;;;4993959;28;20147;-79
2023/04/20 13:32:11;;;;;;;4.95;2.60;;;;;;;;;;4989916;28;20535;-80
2023/04/20 13:34:37;;;;;;;4.22;2.67;;;;;;;;;;4992825;28;20034;-78
2023/04/20 13:37:03;;;;;;;4.10;2.40;;;;;;;;;;4994495;28;20029;-81
2023/04/20 13:39:31;;;;;;;3.30;2.38;;;;;;;;;;4991024;28;20049;-80
2023/04/20 13:41:57;;;;;;;3.25;2.40;;;;;;;;;;4974083;28;20039;-83
2023/04/20 13:44:23;;;;;;;3.88;2.05;;;;;;;;;;4993361;28;20116;-79
2023/04/20 13:46:48;;;;;;;3.67;2.88;;;;;;;;;;4991559;28;20165;-80
2023/04/20 13:49:17;;;;;;;3.40;2.47;;;;;;;;;;4993261;28;20463;-78
2023/04/20 13:51:43;;;;;;;3.90;2.40;;;;;;;;;;4993059;28;20036;-81
2023/04/20 13:54:09;;;;;;;5.97;2.95;;;;;;;;;;4992406;28;20463;-78
2023/04/20 13:56:35;;;;;;;2.92;1.95;;;;;;;;;;4993052;28;20026;-79
2023/04/20 13:59:02;;;;;;;4.70;2.30;;;;;;;;;;4992486;28;20130;-80
2023/04/20 14:01:31;;;;;;;6.28;2.67;;;;;;;;;;4993763;28;20027;-81
2023/04/20 14:03:59;;;;;;;4.45;2.30;;;;;;;;;;4995939;28;20030;-80
2023/04/20 14:06:27;;;;;;;3.10;2.30;;;;;;;;;;4994245;28;20034;-79
2023/04/20 14:08:54;;;;;;;3.35;2.40;;;;;;;;;;4988478;28;20031;-81
2023/04/20 14:11:22;;;;;;;5.43;2.50;;;;;;;;;;4993459;28;20492;-81
2023/04/20 14:13:49;;;;;;;3.67;3.00;;;;;;;;;;4993396;28;20026;-83
2023/04/20 14:16:15;;;;;;;5.40;3.15;;;;;;;;;;4990795;28;20035;-79
2023/04/20 14:18:42;;;;;;;4.57;3.50;;;;;;;;;;4991954;28;20057;-78
2023/04/20 14:21:08;;;;;;;5.13;3.50;;;;;;;;;;4990872;28;20034;-80
2023/04/20 14:23:35;;;;;;;4.43;3.30;;;;;;;;;;4996455;28;20022;-78
2023/04/20 14:26:02;;;;;;;3.72;3.10;;;;;;;;;;4996801;28;20118;-80
2023/04/20 14:28:29;;;;;;;4.47;3.53;;;;;;;;;;4996728;28;20034;-78
2023/04/20 14:30:59;;;;;;;4.93;3.30;;;;;;;;;;5011840;28;20117;-79
2023/04/20 14:33:26;;;;;;;6.95;3.42;;;;;;;;;;5011349;28;20030;-78
2023/04/20 14:35:52;;;;;;;8.55;3.58;;;;;;;;;;4996310;28;20034;-78
2023/04/20 14:38:25;;;;;;;4.43;3.50;;;;;;;;;;4996355;28;20068;-86
2023/04/20 14:40:52;;;;;;;5.55;3.58;;;;;;;;;;4996248;28;20042;-84